sensor_id;sensor_type;location;lat;lon;timestamp;P1;durP1;ratioP1;P2;durP2;ratioP2
3817;SDS011;1924;48.078;11.516;2023-03-12T00:01:11;23.90;;;0.80;;
3817;SDS011;1924;48.078;11.516;2023-03-12T00:03:39;23.80;;;0.80;;
3817;SDS011;1924;48.078;11.516;2023-03-12T00:06:05;23.90;;;0.80;;
3817;SDS011;1924;48.078;11.516;2023-03-12T00:08:33;23.80;;;0.80;;
3817;SDS011;1924;48.078;11.516;2023-03-12T00:11:04;23.70;;;0.80;;
3817;SDS011;1924;48.078;11.516;2023-03-12T00:13:31;23.70;;;0.80;;
3817;SDS011;1924;48.078;11.516;2023-03-12T00:16:01;23.70;;;0.80;;
3817;SDS011;1924;48.078;11.516;2023-03-12T00:18:29;23.80;;;0.80;;
3817;SDS011;1924;48.078;11.516;2023-03-12T00:20:56;23.80;;;0.80;;
3817;SDS011;1924;48.078;11.516;2023-03-12T00:23:22;23.70;;;0.80;;
3817;SDS011;1924;48.078;11.516;2023-03-12T00:25:49;23.70;;;0.80;;
3817;SDS011;1924;48.078;11.516;2023-03-12T00:28:17;23.80;;;0.80;;
3817;SDS011;1924;48.078;11.516;2023-03-12T00:30:44;23.60;;;0.80;;
3817;SDS011;1924;48.078;11.516;2023-03-12T00:33:10;23.70;;;0.80;;
3817;SDS011;1924;48.078;11.516;2023-03-12T00:35:38;23.80;;;0.80;;
3817;SDS011;1924;48.078;11.516;2023-03-12T00:38:04;23.73;;;0.80;;
3817;SDS011;1924;48.078;11.516;2023-03-12T00:40:31;23.80;;;0.80;;
3817;SDS011;1924;48.078;11.516;2023-03-12T00:42:58;23.70;;;0.80;;
3817;SDS011;1924;48.078;11.516;2023-03-12T00:45:26;23.60;;;0.80;;
3817;SDS011;1924;48.078;11.516;2023-03-12T00:47:52;23.60;;;0.77;;
3817;SDS011;1924;48.078;11.516;2023-03-12T00:50:19;23.80;;;0.80;;
3817;SDS011;1924;48.078;11.516;2023-03-12T00:52:46;23.50;;;0.80;;
3817;SDS011;1924;48.078;11.516;2023-03-12T00:55:13;23.60;;;0.80;;
3817;SDS011;1924;48.078;11.516;2023-03-12T00:57:40;23.77;;;0.80;;
3817;SDS011;1924;48.078;11.516;2023-03-12T01:00:07;23.67;;;0.80;;
3817;SDS011;1924;48.078;11.516;2023-03-12T01:02:37;23.77;;;0.80;;
3817;SDS011;1924;48.078;11.516;2023-03-12T01:05:05;23.80;;;0.80;;
3817;SDS011;1924;48.078;11.516;2023-03-12T01:07:33;23.70;;;0.80;;
3817;SDS011;1924;48.078;11.516;2023-03-12T01:10:00;23.80;;;0.90;;
3817;SDS011;1924;48.078;11.516;2023-03-12T01:12:27;23.70;;;0.80;;
3817;SDS011;1924;48.078;11.516;2023-03-12T01:14:54;23.60;;;0.80;;
3817;SDS011;1924;48.078;11.516;2023-03-12T01:17:20;23.77;;;0.80;;
3817;SDS011;1924;48.078;11.516;2023-03-12T01:19:48;23.60;;;0.80;;
3817;SDS011;1924;48.078;11.516;2023-03-12T01:22:15;23.70;;;0.80;;
3817;SDS011;1924;48.078;11.516;2023-03-12T01:24:42;23.60;;;0.80;;
3817;SDS011;1924;48.078;11.516;2023-03-12T01:27:09;23.70;;;0.80;;
3817;SDS011;1924;48.078;11.516;2023-03-12T01:29:35;23.77;;;0.80;;
3817;SDS011;1924;48.078;11.516;2023-03-12T01:32:02;23.60;;;0.80;;
3817;SDS011;1924;48.078;11.516;2023-03-12T01:34:29;23.57;;;0.77;;
3817;SDS011;1924;48.078;11.516;2023-03-12T01:36:58;23.70;;;0.80;;
3817;SDS011;1924;48.078;11.516;2023-03-12T01:39:25;23.77;;;0.80;;
3817;SDS011;1924;48.078;11.516;2023-03-12T01:41:52;23.50;;;0.80;;
3817;SDS011;1924;48.078;11.516;2023-03-12T01:44:19;23.70;;;0.77;;
3817;SDS011;1924;48.078;11.516;2023-03-12T01:46:46;23.50;;;0.80;;
3817;SDS011;1924;48.078;11.516;2023-03-12T01:49:13;23.60;;;0.80;;
3817;SDS011;1924;48.078;11.516;2023-03-12T01:51:44;23.50;;;0.77;;
3817;SDS011;1924;48.078;11.516;2023-03-12T01:54:16;23.50;;;0.77;;
3817;SDS011;1924;48.078;11.516;2023-03-12T01:56:45;23.67;;;0.80;;
3817;SDS011;1924;48.078;11.516;2023-03-12T01:59:14;23.67;;;0.80;;
3817;SDS011;1924;48.078;11.516;2023-03-12T02:01:45;23.57;;;0.80;;
3817;SDS011;1924;48.078;11.516;2023-03-12T02:04:12;23.57;;;0.73;;
3817;SDS011;1924;48.078;11.516;2023-03-12T02:06:42;23.50;;;0.80;;
3817;SDS011;1924;48.078;11.516;2023-03-12T02:09:13;23.60;;;0.80;;
3817;SDS011;1924;48.078;11.516;2023-03-12T02:11:44;23.50;;;0.80;;
3817;SDS011;1924;48.078;11.516;2023-03-12T02:14:11;23.70;;;0.80;;
3817;SDS011;1924;48.078;11.516;2023-03-12T02:16:37;23.57;;;0.80;;
3817;SDS011;1924;48.078;11.516;2023-03-12T02:19:04;23.70;;;0.80;;
3817;SDS011;1924;48.078;11.516;2023-03-12T02:21:40;23.77;;;0.80;;
3817;SDS011;1924;48.078;11.516;2023-03-12T02:24:07;23.67;;;0.80;;
3817;SDS011;1924;48.078;11.516;2023-03-12T02:26:44;23.50;;;0.80;;
3817;SDS011;1924;48.078;11.516;2023-03-12T02:29:12;23.60;;;0.80;;
3817;SDS011;1924;48.078;11.516;2023-03-12T02:31:40;23.60;;;0.80;;
3817;SDS011;1924;48.078;11.516;2023-03-12T02:34:08;23.70;;;0.80;;
3817;SDS011;1924;48.078;11.516;2023-03-12T02:36:35;23.70;;;0.80;;
3817;SDS011;1924;48.078;11.516;2023-03-12T02:39:02;23.60;;;0.80;;
3817;SDS011;1924;48.078;11.516;2023-03-12T02:41:30;23.73;;;0.80;;
3817;SDS011;1924;48.078;11.516;2023-03-12T02:44:01;23.50;;;0.80;;
3817;SDS011;1924;48.078;11.516;2023-03-12T02:46:32;23.70;;;0.80;;
3817;SDS011;1924;48.078;11.516;2023-03-12T02:49:01;23.53;;;0.80;;
3817;SDS011;1924;48.078;11.516;2023-03-12T02:51:27;23.60;;;0.80;;
3817;SDS011;1924;48.078;11.516;2023-03-12T02:53:54;23.60;;;0.80;;
3817;SDS011;1924;48.078;11.516;2023-03-12T02:56:21;23.63;;;0.80;;
3817;SDS011;1924;48.078;11.516;2023-03-12T02:58:48;23.50;;;0.80;;
3817;SDS011;1924;48.078;11.516;2023-03-12T03:01:16;23.63;;;0.80;;
3817;SDS011;1924;48.078;11.516;2023-03-12T03:03:44;23.50;;;0.77;;
3817;SDS011;1924;48.078;11.516;2023-03-12T05:02:11;23.50;;;0.80;;
3817;SDS011;1924;48.078;11.516;2023-03-12T05:04:37;23.50;;;0.70;;
3817;SDS011;1924;48.078;11.516;2023-03-12T05:07:04;23.50;;;0.80;;
3817;SDS011;1924;48.078;11.516;2023-03-12T05:09:31;23.50;;;0.80;;
3817;SDS011;1924;48.078;11.516;2023-03-12T05:11:58;23.50;;;0.70;;
3817;SDS011;1924;48.078;11.516;2023-03-12T05:14:25;23.50;;;0.80;;
3817;SDS011;1924;48.078;11.516;2023-03-12T05:16:52;23.50;;;0.70;;
3817;SDS011;1924;48.078;11.516;2023-03-12T05:19:20;23.50;;;0.80;;
3817;SDS011;1924;48.078;11.516;2023-03-12T05:21:46;23.70;;;0.73;;
3817;SDS011;1924;48.078;11.516;2023-03-12T05:24:14;23.60;;;0.70;;
3817;SDS011;1924;48.078;11.516;2023-03-12T05:26:42;23.40;;;0.70;;
3817;SDS011;1924;48.078;11.516;2023-03-12T05:29:08;23.60;;;0.80;;
3817;SDS011;1924;48.078;11.516;2023-03-12T05:31:35;23.60;;;0.80;;
3817;SDS011;1924;48.078;11.516;2023-03-12T05:34:03;23.50;;;0.80;;
3817;SDS011;1924;48.078;11.516;2023-03-12T05:36:31;23.47;;;0.80;;
3817;SDS011;1924;48.078;11.516;2023-03-12T05:38:58;23.40;;;0.80;;
3817;SDS011;1924;48.078;11.516;2023-03-12T05:41:27;23.60;;;0.80;;
3817;SDS011;1924;48.078;11.516;2023-03-12T05:43:56;23.50;;;0.70;;
3817;SDS011;1924;48.078;11.516;2023-03-12T05:46:24;23.50;;;0.80;;
3817;SDS011;1924;48.078;11.516;2023-03-12T05:48:52;23.50;;;0.80;;
3817;SDS011;1924;48.078;11.516;2023-03-12T05:51:19;23.30;;;0.70;;
3817;SDS011;1924;48.078;11.516;2023-03-12T05:53:47;23.30;;;0.70;;
3817;SDS011;1924;48.078;11.516;2023-03-12T05:56:15;23.40;;;0.70;;
3817;SDS011;1924;48.078;11.516;2023-03-12T05:58:42;23.43;;;0.80;;
3817;SDS011;1924;48.078;11.516;2023-03-12T06:01:10;23.40;;;0.70;;
3817;SDS011;1924;48.078;11.516;2023-03-12T06:03:37;23.50;;;0.70;;
3817;SDS011;1924;48.078;11.516;2023-03-12T06:06:04;23.37;;;0.70;;
3817;SDS011;1924;48.078;11.516;2023-03-12T06:08:31;23.40;;;0.70;;
3817;SDS011;1924;48.078;11.516;2023-03-12T06:10:59;23.30;;;0.70;;
3817;SDS011;1924;48.078;11.516;2023-03-12T06:13:26;23.20;;;0.70;;
3817;SDS011;1924;48.078;11.516;2023-03-12T06:15:52;23.40;;;0.70;;
3817;SDS011;1924;48.078;11.516;2023-03-12T06:18:19;23.30;;;0.70;;
3817;SDS011;1924;48.078;11.516;2023-03-12T06:20:46;23.40;;;0.70;;
3817;SDS011;1924;48.078;11.516;2023-03-12T06:23:13;23.40;;;0.70;;
3817;SDS011;1924;48.078;11.516;2023-03-12T06:25:39;23.30;;;0.80;;
3817;SDS011;1924;48.078;11.516;2023-03-12T06:28:10;23.40;;;0.70;;
3817;SDS011;1924;48.078;11.516;2023-03-12T06:30:37;23.40;;;0.70;;
3817;SDS011;1924;48.078;11.516;2023-03-12T06:33:04;23.30;;;0.70;;
3817;SDS011;1924;48.078;11.516;2023-03-12T06:35:36;23.40;;;0.80;;
3817;SDS011;1924;48.078;11.516;2023-03-12T06:38:02;23.47;;;0.70;;
3817;SDS011;1924;48.078;11.516;2023-03-12T06:40:29;23.50;;;0.73;;
3817;SDS011;1924;48.078;11.516;2023-03-12T06:42:57;23.60;;;0.77;;
3817;SDS011;1924;48.078;11.516;2023-03-12T06:45:25;23.40;;;0.70;;
3817;SDS011;1924;48.078;11.516;2023-03-12T06:47:51;23.50;;;0.70;;
3817;SDS011;1924;48.078;11.516;2023-03-12T06:50:18;23.40;;;0.70;;
3817;SDS011;1924;48.078;11.516;2023-03-12T06:52:45;23.60;;;0.70;;
3817;SDS011;1924;48.078;11.516;2023-03-12T06:55:11;23.57;;;0.70;;
3817;SDS011;1924;48.078;11.516;2023-03-12T06:57:38;23.50;;;0.70;;
3817;SDS011;1924;48.078;11.516;2023-03-12T07:00:05;23.57;;;0.70;;
3817;SDS011;1924;48.078;11.516;2023-03-12T07:02:34;23.60;;;0.70;;
3817;SDS011;1924;48.078;11.516;2023-03-12T07:05:01;23.57;;;0.70;;
3817;SDS011;1924;48.078;11.516;2023-03-12T07:07:28;23.60;;;0.70;;
3817;SDS011;1924;48.078;11.516;2023-03-12T07:09:54;23.30;;;0.70;;
3817;SDS011;1924;48.078;11.516;2023-03-12T07:12:21;23.40;;;0.70;;
3817;SDS011;1924;48.078;11.516;2023-03-12T07:14:48;23.40;;;0.70;;
3817;SDS011;1924;48.078;11.516;2023-03-12T07:17:14;23.20;;;0.70;;
3817;SDS011;1924;48.078;11.516;2023-03-12T07:19:42;23.40;;;0.70;;
3817;SDS011;1924;48.078;11.516;2023-03-12T07:22:09;23.20;;;0.70;;
3817;SDS011;1924;48.078;11.516;2023-03-12T07:24:36;23.30;;;0.70;;
3817;SDS011;1924;48.078;11.516;2023-03-12T07:27:02;23.40;;;0.70;;
3817;SDS011;1924;48.078;11.516;2023-03-12T07:29:29;23.50;;;0.70;;
3817;SDS011;1924;48.078;11.516;2023-03-12T07:31:56;23.20;;;0.73;;
3817;SDS011;1924;48.078;11.516;2023-03-12T07:34:22;23.57;;;0.70;;
3817;SDS011;1924;48.078;11.516;2023-03-12T07:36:51;23.50;;;0.70;;
3817;SDS011;1924;48.078;11.516;2023-03-12T07:39:18;23.50;;;0.70;;
3817;SDS011;1924;48.078;11.516;2023-03-12T07:41:45;23.57;;;0.70;;
3817;SDS011;1924;48.078;11.516;2023-03-12T07:44:12;23.60;;;0.70;;
3817;SDS011;1924;48.078;11.516;2023-03-12T07:46:39;23.70;;;0.70;;
3817;SDS011;1924;48.078;11.516;2023-03-12T07:49:05;23.70;;;0.70;;
3817;SDS011;1924;48.078;11.516;2023-03-12T07:51:32;23.60;;;0.70;;
3817;SDS011;1924;48.078;11.516;2023-03-12T07:54:00;23.70;;;0.70;;
3817;SDS011;1924;48.078;11.516;2023-03-12T07:56:27;23.80;;;0.73;;
3817;SDS011;1924;48.078;11.516;2023-03-12T07:58:54;23.77;;;0.70;;
3817;SDS011;1924;48.078;11.516;2023-03-12T08:01:20;23.70;;;0.70;;
3817;SDS011;1924;48.078;11.516;2023-03-12T08:03:49;23.80;;;0.70;;
3817;SDS011;1924;48.078;11.516;2023-03-12T08:06:16;23.70;;;0.70;;
3817;SDS011;1924;48.078;11.516;2023-03-12T08:08:42;23.90;;;0.70;;
3817;SDS011;1924;48.078;11.516;2023-03-12T08:11:10;23.90;;;0.70;;
3817;SDS011;1924;48.078;11.516;2023-03-12T08:13:37;23.80;;;0.70;;
3817;SDS011;1924;48.078;11.516;2023-03-12T08:16:04;23.70;;;0.70;;
3817;SDS011;1924;48.078;11.516;2023-03-12T08:18:31;23.60;;;0.70;;
3817;SDS011;1924;48.078;11.516;2023-03-12T08:20:58;23.70;;;0.70;;
3817;SDS011;1924;48.078;11.516;2023-03-12T08:23:24;23.80;;;0.80;;
3817;SDS011;1924;48.078;11.516;2023-03-12T08:25:52;23.70;;;0.80;;
3817;SDS011;1924;48.078;11.516;2023-03-12T08:28:21;23.80;;;0.70;;
3817;SDS011;1924;48.078;11.516;2023-03-12T08:30:49;23.70;;;0.70;;
3817;SDS011;1924;48.078;11.516;2023-03-12T08:33:17;23.83;;;0.70;;
3817;SDS011;1924;48.078;11.516;2023-03-12T08:35:44;23.70;;;0.80;;
3817;SDS011;1924;48.078;11.516;2023-03-12T08:38:11;23.80;;;0.70;;
3817;SDS011;1924;48.078;11.516;2023-03-12T08:40:38;23.73;;;0.80;;
3817;SDS011;1924;48.078;11.516;2023-03-12T08:43:05;23.60;;;0.73;;
3817;SDS011;1924;48.078;11.516;2023-03-12T08:45:34;23.60;;;0.80;;
3817;SDS011;1924;48.078;11.516;2023-03-12T08:48:01;23.57;;;0.70;;
3817;SDS011;1924;48.078;11.516;2023-03-12T08:50:28;23.50;;;0.70;;
3817;SDS011;1924;48.078;11.516;2023-03-12T08:52:56;23.50;;;0.70;;
3817;SDS011;1924;48.078;11.516;2023-03-12T08:55:22;23.60;;;0.70;;
3817;SDS011;1924;48.078;11.516;2023-03-12T08:57:50;23.50;;;0.70;;
3817;SDS011;1924;48.078;11.516;2023-03-12T09:00:17;23.50;;;0.70;;
3817;SDS011;1924;48.078;11.516;2023-03-12T09:02:45;23.50;;;0.70;;
3817;SDS011;1924;48.078;11.516;2023-03-12T09:05:15;23.50;;;0.70;;
3817;SDS011;1924;48.078;11.516;2023-03-12T09:07:42;23.50;;;0.70;;
3817;SDS011;1924;48.078;11.516;2023-03-12T09:10:09;23.70;;;0.80;;
3817;SDS011;1924;48.078;11.516;2023-03-12T09:12:36;23.50;;;0.70;;
3817;SDS011;1924;48.078;11.516;2023-03-12T09:15:03;23.67;;;0.70;;
3817;SDS011;1924;48.078;11.516;2023-03-12T09:17:30;23.50;;;0.70;;
3817;SDS011;1924;48.078;11.516;2023-03-12T09:19:58;23.50;;;0.80;;
3817;SDS011;1924;48.078;11.516;2023-03-12T09:22:25;23.70;;;0.70;;
3817;SDS011;1924;48.078;11.516;2023-03-12T09:24:54;23.50;;;0.70;;
3817;SDS011;1924;48.078;11.516;2023-03-12T09:27:20;23.60;;;0.70;;
3817;SDS011;1924;48.078;11.516;2023-03-12T09:29:47;23.60;;;0.70;;
3817;SDS011;1924;48.078;11.516;2023-03-12T09:32:15;23.80;;;0.70;;
3817;SDS011;1924;48.078;11.516;2023-03-12T09:34:42;23.50;;;0.70;;
3817;SDS011;1924;48.078;11.516;2023-03-12T09:37:10;23.80;;;0.77;;
3817;SDS011;1924;48.078;11.516;2023-03-12T09:39:37;23.60;;;0.70;;
3817;SDS011;1924;48.078;11.516;2023-03-12T09:42:04;23.70;;;0.70;;
3817;SDS011;1924;48.078;11.516;2023-03-12T09:44:40;23.70;;;0.70;;
3817;SDS011;1924;48.078;11.516;2023-03-12T09:47:14;23.73;;;0.70;;
3817;SDS011;1924;48.078;11.516;2023-03-12T09:49:50;23.60;;;0.70;;
3817;SDS011;1924;48.078;11.516;2023-03-12T09:52:23;23.60;;;0.70;;
3817;SDS011;1924;48.078;11.516;2023-03-12T09:54:54;23.70;;;0.70;;
3817;SDS011;1924;48.078;11.516;2023-03-12T09:57:27;23.60;;;0.70;;
3817;SDS011;1924;48.078;11.516;2023-03-12T09:59:54;23.60;;;0.70;;
3817;SDS011;1924;48.078;11.516;2023-03-12T10:02:28;23.60;;;0.70;;
3817;SDS011;1924;48.078;11.516;2023-03-12T10:05:08;23.67;;;0.70;;
3817;SDS011;1924;48.078;11.516;2023-03-12T10:07:45;23.67;;;0.70;;
3817;SDS011;1924;48.078;11.516;2023-03-12T10:10:20;23.50;;;0.70;;
3817;SDS011;1924;48.078;11.516;2023-03-12T10:15:48;23.60;;;0.70;;
3817;SDS011;1924;48.078;11.516;2023-03-12T10:18:27;23.60;;;0.70;;
3817;SDS011;1924;48.078;11.516;2023-03-12T10:21:13;23.60;;;0.70;;
3817;SDS011;1924;48.078;11.516;2023-03-12T10:23:51;23.60;;;0.70;;
3817;SDS011;1924;48.078;11.516;2023-03-12T10:26:32;23.50;;;0.70;;
3817;SDS011;1924;48.078;11.516;2023-03-12T10:29:05;23.70;;;0.70;;
3817;SDS011;1924;48.078;11.516;2023-03-12T10:31:44;23.70;;;0.70;;
3817;SDS011;1924;48.078;11.516;2023-03-12T10:34:27;23.60;;;0.70;;
3817;SDS011;1924;48.078;11.516;2023-03-12T10:37:02;23.70;;;0.70;;
3817;SDS011;1924;48.078;11.516;2023-03-12T10:39:40;23.80;;;0.70;;
3817;SDS011;1924;48.078;11.516;2023-03-12T10:42:11;23.90;;;0.70;;
3817;SDS011;1924;48.078;11.516;2023-03-12T10:44:42;23.70;;;0.70;;
3817;SDS011;1924;48.078;11.516;2023-03-12T10:47:24;24.00;;;0.70;;
3817;SDS011;1924;48.078;11.516;2023-03-12T10:50:11;23.90;;;0.70;;
3817;SDS011;1924;48.078;11.516;2023-03-12T10:52:40;23.90;;;0.70;;
3817;SDS011;1924;48.078;11.516;2023-03-12T10:55:15;24.00;;;0.70;;
3817;SDS011;1924;48.078;11.516;2023-03-12T10:57:47;23.90;;;0.80;;
3817;SDS011;1924;48.078;11.516;2023-03-12T11:00:18;24.00;;;0.70;;
3817;SDS011;1924;48.078;11.516;2023-03-12T11:02:54;24.00;;;0.70;;
3817;SDS011;1924;48.078;11.516;2023-03-12T11:05:27;23.90;;;0.70;;
3817;SDS011;1924;48.078;11.516;2023-03-12T11:07:56;24.07;;;0.80;;
3817;SDS011;1924;48.078;11.516;2023-03-12T11:10:36;24.20;;;0.80;;
3817;SDS011;1924;48.078;11.516;2023-03-12T11:13:20;24.10;;;0.70;;
3817;SDS011;1924;48.078;11.516;2023-03-12T11:15:54;24.10;;;0.70;;
3817;SDS011;1924;48.078;11.516;2023-03-12T11:18:23;24.20;;;0.70;;
3817;SDS011;1924;48.078;11.516;2023-03-12T11:21:12;24.00;;;0.70;;
3817;SDS011;1924;48.078;11.516;2023-03-12T11:24:01;24.17;;;0.70;;
3817;SDS011;1924;48.078;11.516;2023-03-12T11:26:34;24.30;;;0.80;;
3817;SDS011;1924;48.078;11.516;2023-03-12T11:29:16;24.40;;;0.70;;
3817;SDS011;1924;48.078;11.516;2023-03-12T11:31:49;24.40;;;0.70;;
3817;SDS011;1924;48.078;11.516;2023-03-12T11:34:32;24.60;;;0.80;;
3817;SDS011;1924;48.078;11.516;2023-03-12T11:37:05;24.80;;;0.70;;
3817;SDS011;1924;48.078;11.516;2023-03-12T11:39:43;24.80;;;0.70;;
3817;SDS011;1924;48.078;11.516;2023-03-12T11:42:25;24.80;;;0.70;;
3817;SDS011;1924;48.078;11.516;2023-03-12T11:45:05;24.80;;;0.80;;
3817;SDS011;1924;48.078;11.516;2023-03-12T11:47:47;24.90;;;0.80;;
3817;SDS011;1924;48.078;11.516;2023-03-12T11:50:33;25.00;;;0.70;;
3817;SDS011;1924;48.078;11.516;2023-03-12T11:53:11;25.00;;;0.80;;
3817;SDS011;1924;48.078;11.516;2023-03-12T11:56:01;25.20;;;0.80;;
3817;SDS011;1924;48.078;11.516;2023-03-12T11:58:41;25.10;;;0.77;;
3817;SDS011;1924;48.078;11.516;2023-03-12T12:01:20;25.20;;;0.73;;
3817;SDS011;1924;48.078;11.516;2023-03-12T12:03:58;25.30;;;0.80;;
3817;SDS011;1924;48.078;11.516;2023-03-12T12:06:37;25.40;;;0.80;;
3817;SDS011;1924;48.078;11.516;2023-03-12T12:09:24;25.30;;;0.80;;
3817;SDS011;1924;48.078;11.516;2023-03-12T12:12:05;25.30;;;0.80;;
3817;SDS011;1924;48.078;11.516;2023-03-12T12:14:44;25.20;;;0.77;;
3817;SDS011;1924;48.078;11.516;2023-03-12T12:17:29;25.30;;;0.80;;
3817;SDS011;1924;48.078;11.516;2023-03-12T12:20:14;25.60;;;0.80;;
3817;SDS011;1924;48.078;11.516;2023-03-12T12:22:49;25.50;;;0.80;;
3817;SDS011;1924;48.078;11.516;2023-03-12T12:25:35;25.50;;;0.73;;
3817;SDS011;1924;48.078;11.516;2023-03-12T12:28:35;25.50;;;0.80;;
3817;SDS011;1924;48.078;11.516;2023-03-12T12:31:21;25.60;;;0.70;;
3817;SDS011;1924;48.078;11.516;2023-03-12T12:34:00;25.33;;;0.80;;
3817;SDS011;1924;48.078;11.516;2023-03-12T12:36:41;25.60;;;0.80;;
3817;SDS011;1924;48.078;11.516;2023-03-12T12:39:12;25.60;;;0.80;;
3817;SDS011;1924;48.078;11.516;2023-03-12T12:41:44;25.60;;;0.80;;
3817;SDS011;1924;48.078;11.516;2023-03-12T12:44:16;25.60;;;0.80;;
3817;SDS011;1924;48.078;11.516;2023-03-12T12:46:51;25.50;;;0.77;;
3817;SDS011;1924;48.078;11.516;2023-03-12T12:49:23;25.50;;;0.80;;
3817;SDS011;1924;48.078;11.516;2023-03-12T12:51:54;25.80;;;0.80;;
3817;SDS011;1924;48.078;11.516;2023-03-12T12:54:26;25.83;;;0.80;;
3817;SDS011;1924;48.078;11.516;2023-03-12T12:56:59;25.80;;;0.80;;
3817;SDS011;1924;48.078;11.516;2023-03-12T12:59:35;25.80;;;0.80;;
3817;SDS011;1924;48.078;11.516;2023-03-12T13:02:14;25.90;;;0.80;;
3817;SDS011;1924;48.078;11.516;2023-03-12T13:04:44;25.80;;;0.80;;
3817;SDS011;1924;48.078;11.516;2023-03-12T13:07:29;25.90;;;0.80;;
3817;SDS011;1924;48.078;11.516;2023-03-12T13:09:58;26.00;;;0.80;;
3817;SDS011;1924;48.078;11.516;2023-03-12T13:12:31;26.00;;;0.80;;
3817;SDS011;1924;48.078;11.516;2023-03-12T13:15:31;26.10;;;0.80;;
3817;SDS011;1924;48.078;11.516;2023-03-12T13:18:07;26.10;;;0.80;;
3817;SDS011;1924;48.078;11.516;2023-03-12T13:20:44;26.10;;;0.80;;
3817;SDS011;1924;48.078;11.516;2023-03-12T13:23:32;26.20;;;0.80;;
3817;SDS011;1924;48.078;11.516;2023-03-12T13:26:05;26.30;;;0.80;;
3817;SDS011;1924;48.078;11.516;2023-03-12T13:28:55;26.13;;;0.80;;
3817;SDS011;1924;48.078;11.516;2023-03-12T13:31:33;26.50;;;0.80;;
3817;SDS011;1924;48.078;11.516;2023-03-12T13:37:16;26.60;;;0.80;;
3817;SDS011;1924;48.078;11.516;2023-03-12T13:39:46;26.70;;;0.80;;
3817;SDS011;1924;48.078;11.516;2023-03-12T13:42:26;26.70;;;0.80;;
3817;SDS011;1924;48.078;11.516;2023-03-12T13:45:19;26.90;;;0.80;;
3817;SDS011;1924;48.078;11.516;2023-03-12T13:47:48;26.90;;;0.80;;
3817;SDS011;1924;48.078;11.516;2023-03-12T13:50:21;27.10;;;0.80;;
3817;SDS011;1924;48.078;11.516;2023-03-12T13:52:49;27.10;;;0.80;;
3817;SDS011;1924;48.078;11.516;2023-03-12T13:55:26;27.10;;;0.80;;
3817;SDS011;1924;48.078;11.516;2023-03-12T13:57:55;27.00;;;0.80;;
3817;SDS011;1924;48.078;11.516;2023-03-12T14:00:25;27.10;;;0.80;;
3817;SDS011;1924;48.078;11.516;2023-03-12T14:02:56;27.10;;;0.80;;
3817;SDS011;1924;48.078;11.516;2023-03-12T14:05:27;26.90;;;0.80;;
3817;SDS011;1924;48.078;11.516;2023-03-12T14:08:04;27.00;;;0.80;;
3817;SDS011;1924;48.078;11.516;2023-03-12T14:10:46;26.80;;;0.80;;
3817;SDS011;1924;48.078;11.516;2023-03-12T14:13:24;26.90;;;0.80;;
3817;SDS011;1924;48.078;11.516;2023-03-12T14:16:05;26.90;;;0.80;;
3817;SDS011;1924;48.078;11.516;2023-03-12T14:18:38;27.00;;;0.80;;
3817;SDS011;1924;48.078;11.516;2023-03-12T14:21:12;26.90;;;0.80;;
3817;SDS011;1924;48.078;11.516;2023-03-12T14:23:43;27.20;;;0.80;;
3817;SDS011;1924;48.078;11.516;2023-03-12T14:26:16;27.20;;;0.80;;
3817;SDS011;1924;48.078;11.516;2023-03-12T14:28:49;27.20;;;0.80;;
3817;SDS011;1924;48.078;11.516;2023-03-12T14:31:20;27.30;;;0.80;;
3817;SDS011;1924;48.078;11.516;2023-03-12T14:33:51;27.20;;;0.80;;
3817;SDS011;1924;48.078;11.516;2023-03-12T14:36:24;27.20;;;0.80;;
3817;SDS011;1924;48.078;11.516;2023-03-12T14:38:55;27.27;;;0.80;;
3817;SDS011;1924;48.078;11.516;2023-03-12T14:41:26;27.10;;;0.80;;
3817;SDS011;1924;48.078;11.516;2023-03-12T14:44:02;27.20;;;0.80;;
3817;SDS011;1924;48.078;11.516;2023-03-12T14:46:30;27.00;;;0.80;;
3817;SDS011;1924;48.078;11.516;2023-03-12T14:48:57;27.00;;;0.80;;
3817;SDS011;1924;48.078;11.516;2023-03-12T14:51:26;27.00;;;0.80;;
3817;SDS011;1924;48.078;11.516;2023-03-12T14:53:54;27.20;;;0.80;;
3817;SDS011;1924;48.078;11.516;2023-03-12T14:56:23;27.10;;;0.80;;
3817;SDS011;1924;48.078;11.516;2023-03-12T14:58:53;27.10;;;0.80;;
3817;SDS011;1924;48.078;11.516;2023-03-12T15:01:20;27.20;;;0.80;;
3817;SDS011;1924;48.078;11.516;2023-03-12T15:03:49;27.20;;;0.80;;
3817;SDS011;1924;48.078;11.516;2023-03-12T15:06:20;27.10;;;0.80;;
3817;SDS011;1924;48.078;11.516;2023-03-12T15:08:54;27.30;;;0.80;;
3817;SDS011;1924;48.078;11.516;2023-03-12T15:11:21;27.13;;;0.80;;
3817;SDS011;1924;48.078;11.516;2023-03-12T15:13:50;27.20;;;0.80;;
3817;SDS011;1924;48.078;11.516;2023-03-12T15:16:18;27.20;;;0.80;;
3817;SDS011;1924;48.078;11.516;2023-03-12T15:18:45;27.00;;;0.80;;
3817;SDS011;1924;48.078;11.516;2023-03-12T15:21:14;27.10;;;0.80;;
3817;SDS011;1924;48.078;11.516;2023-03-12T15:23:46;27.10;;;0.80;;
3817;SDS011;1924;48.078;11.516;2023-03-12T15:26:26;27.00;;;0.80;;
3817;SDS011;1924;48.078;11.516;2023-03-12T15:29:00;27.10;;;0.80;;
3817;SDS011;1924;48.078;11.516;2023-03-12T15:31:42;27.00;;;0.80;;
3817;SDS011;1924;48.078;11.516;2023-03-12T15:34:11;26.90;;;0.80;;
3817;SDS011;1924;48.078;11.516;2023-03-12T15:36:44;26.97;;;0.80;;
3817;SDS011;1924;48.078;11.516;2023-03-12T15:39:22;27.00;;;0.80;;
3817;SDS011;1924;48.078;11.516;2023-03-12T15:41:51;27.00;;;0.80;;
3817;SDS011;1924;48.078;11.516;2023-03-12T15:44:20;27.00;;;0.80;;
3817;SDS011;1924;48.078;11.516;2023-03-12T15:46:49;27.00;;;0.80;;
3817;SDS011;1924;48.078;11.516;2023-03-12T15:49:20;27.00;;;0.80;;
3817;SDS011;1924;48.078;11.516;2023-03-12T15:51:57;27.00;;;0.80;;
3817;SDS011;1924;48.078;11.516;2023-03-12T15:54:27;26.70;;;0.80;;
3817;SDS011;1924;48.078;11.516;2023-03-12T15:56:56;27.00;;;0.80;;
3817;SDS011;1924;48.078;11.516;2023-03-12T15:59:43;26.90;;;0.80;;
3817;SDS011;1924;48.078;11.516;2023-03-12T16:02:09;27.00;;;0.80;;
3817;SDS011;1924;48.078;11.516;2023-03-12T16:04:37;26.80;;;0.80;;
3817;SDS011;1924;48.078;11.516;2023-03-12T16:07:05;27.00;;;0.80;;
3817;SDS011;1924;48.078;11.516;2023-03-12T16:09:38;26.80;;;0.80;;
3817;SDS011;1924;48.078;11.516;2023-03-12T16:12:05;26.80;;;0.80;;
3817;SDS011;1924;48.078;11.516;2023-03-12T16:14:34;26.90;;;0.80;;
3817;SDS011;1924;48.078;11.516;2023-03-12T16:17:01;26.80;;;0.80;;
3817;SDS011;1924;48.078;11.516;2023-03-12T16:19:28;26.80;;;0.80;;
3817;SDS011;1924;48.078;11.516;2023-03-12T16:21:57;26.70;;;0.80;;
3817;SDS011;1924;48.078;11.516;2023-03-12T16:24:24;26.90;;;0.80;;
3817;SDS011;1924;48.078;11.516;2023-03-12T16:26:53;26.67;;;0.80;;
3817;SDS011;1924;48.078;11.516;2023-03-12T16:29:22;26.70;;;0.80;;
3817;SDS011;1924;48.078;11.516;2023-03-12T16:31:56;26.50;;;0.80;;
3817;SDS011;1924;48.078;11.516;2023-03-12T16:34:23;26.80;;;0.80;;
3817;SDS011;1924;48.078;11.516;2023-03-12T16:36:50;26.73;;;0.80;;
3817;SDS011;1924;48.078;11.516;2023-03-12T16:39:17;26.60;;;0.80;;
3817;SDS011;1924;48.078;11.516;2023-03-12T16:41:44;26.50;;;0.77;;
3817;SDS011;1924;48.078;11.516;2023-03-12T16:44:14;26.60;;;0.80;;
3817;SDS011;1924;48.078;11.516;2023-03-12T16:46:42;26.70;;;0.80;;
3817;SDS011;1924;48.078;11.516;2023-03-12T16:49:11;26.60;;;0.80;;
3817;SDS011;1924;48.078;11.516;2023-03-12T16:51:39;26.70;;;0.80;;
3817;SDS011;1924;48.078;11.516;2023-03-12T16:54:06;26.60;;;0.80;;
3817;SDS011;1924;48.078;11.516;2023-03-12T16:56:33;26.70;;;0.80;;
3817;SDS011;1924;48.078;11.516;2023-03-12T16:59:00;26.50;;;0.80;;
3817;SDS011;1924;48.078;11.516;2023-03-12T17:01:31;26.70;;;0.80;;
3817;SDS011;1924;48.078;11.516;2023-03-12T17:03:58;26.40;;;0.80;;
3817;SDS011;1924;48.078;11.516;2023-03-12T17:06:25;26.70;;;0.80;;
3817;SDS011;1924;48.078;11.516;2023-03-12T17:08:52;26.50;;;0.80;;
3817;SDS011;1924;48.078;11.516;2023-03-12T17:11:20;26.70;;;0.80;;